Time;durP1;ratioP1;P1;durP2;ratioP2;P2;SDS_P1;SDS_P2;PMS_P1;PMS_P2;Temp;Humidity;BMP_temperature;BMP_pressure;BME280_temperature;BME280_humidity;BME280_pressure;Samples;Min_cycle;Max_cycle;Signal;HPM_P1;HPM_P2
2023/08/12 00:00:48;;;;;;;8.77;5.82;;;20.50;99.90;;;;;;4974690;28;20058;-65
2023/08/12 00:03:15;;;;;;;10.07;6.47;;;20.40;99.90;;;;;;4973980;28;20042;-64
2023/08/12 00:05:42;;;;;;;9.23;6.43;;;20.40;99.90;;;;;;4991187;28;20050;-64
2023/08/12 00:08:09;;;;;;;9.13;6.32;;;20.40;99.90;;;;;;4972155;28;20055;-64
2023/08/12 00:10:35;;;;;;;11.30;7.07;;;20.30;99.90;;;;;;4955437;28;20055;-65
2023/08/12 00:13:02;;;;;;;10.40;6.63;;;20.40;99.90;;;;;;4972378;28;20058;-64
2023/08/12 00:15:28;;;;;;;10.10;6.68;;;20.40;99.90;;;;;;4954963;28;20056;-66
2023/08/12 00:17:56;;;;;;;8.73;6.45;;;20.40;99.90;;;;;;4972247;28;20046;-66
2023/08/12 00:20:24;;;;;;;13.00;7.25;;;20.50;99.90;;;;;;4974697;28;20065;-65
2023/08/12 00:22:50;;;;;;;9.77;6.80;;;20.20;99.90;;;;;;4991886;28;20454;-66
2023/08/12 00:25:16;;;;;;;9.57;6.35;;;20.30;99.90;;;;;;4991542;28;20050;-64
2023/08/12 00:27:43;;;;;;;12.00;6.70;;;20.20;99.90;;;;;;4990788;28;20069;-66
2023/08/12 00:30:09;;;;;;;10.23;6.63;;;20.30;99.90;;;;;;4991446;28;20431;-64
2023/08/12 00:32:36;;;;;;;11.30;7.93;;;20.20;99.90;;;;;;4958220;28;20046;-65
2023/08/12 00:35:02;;;;;;;11.00;6.95;;;20.20;99.90;;;;;;4991156;28;20077;-64
2023/08/12 00:37:29;;;;;;;10.82;7.07;;;20.20;99.90;;;;;;4990775;28;20046;-66
2023/08/12 00:39:55;;;;;;;9.82;6.88;;;20.20;99.90;;;;;;4991319;28;20057;-63
2023/08/12 00:42:22;;;;;;;9.57;7.53;;;20.20;99.90;;;;;;4974188;28;20046;-63
2023/08/12 00:44:48;;;;;;;9.88;6.95;;;20.10;99.90;;;;;;5005123;28;20387;-63
2023/08/12 00:47:17;;;;;;;10.82;7.05;;;20.10;99.90;;;;;;5010289;28;20049;-63
2023/08/12 00:49:45;;;;;;;11.00;7.05;;;20.20;99.90;;;;;;5010832;28;20060;-64
2023/08/12 00:52:16;;;;;;;10.55;7.00;;;20.00;99.90;;;;;;5010736;28;20056;-64
2023/08/12 00:54:43;;;;;;;10.60;6.93;;;20.10;99.90;;;;;;5010817;28;20057;-64
2023/08/12 00:57:09;;;;;;;10.05;7.13;;;20.10;99.90;;;;;;5009628;28;20455;-64
2023/08/12 00:59:39;;;;;;;11.40;6.95;;;20.10;99.90;;;;;;5010599;28;20073;-64
2023/08/12 01:02:05;;;;;;;11.05;7.32;;;20.00;99.90;;;;;;4993271;28;20057;-63
2023/08/12 01:04:31;;;;;;;11.68;6.85;;;20.00;99.90;;;;;;4993130;28;20049;-62
2023/08/12 01:06:58;;;;;;;11.63;7.13;;;20.10;99.90;;;;;;5009809;28;20410;-65
2023/08/12 01:09:25;;;;;;;9.75;7.03;;;20.00;99.90;;;;;;5010516;28;20065;-64
2023/08/12 01:12:03;;;;;;;9.75;6.80;;;20.00;99.90;;;;;;5010223;28;20795;-66
2023/08/12 01:14:50;;;;;;;10.02;7.45;;;19.90;99.90;;;;;;5010895;28;20095;-65
2023/08/12 01:17:18;;;;;;;11.02;7.25;;;20.00;99.90;;;;;;5013574;28;20124;-65
2023/08/12 01:20:02;;;;;;;10.35;7.18;;;19.90;99.90;;;;;;5013845;28;20462;-64
2023/08/12 01:22:32;;;;;;;11.75;7.10;;;19.90;99.90;;;;;;5014806;28;20050;-67
2023/08/12 01:24:59;;;;;;;11.85;7.45;;;19.80;99.90;;;;;;5014548;28;20190;-66
2023/08/12 01:27:26;;;;;;;10.32;7.38;;;19.80;99.90;;;;;;4996563;28;20050;-65
2023/08/12 01:29:53;;;;;;;10.00;7.85;;;19.80;99.90;;;;;;4980705;28;20206;-67
2023/08/12 01:32:39;;;;;;;11.57;7.68;;;19.90;99.90;;;;;;5013136;28;20060;-66
2023/08/12 01:35:20;;;;;;;11.35;7.35;;;19.70;99.90;;;;;;5013902;28;20398;-65
2023/08/12 01:37:51;;;;;;;13.30;7.82;;;19.70;99.90;;;;;;5013585;28;20050;-64
2023/08/12 01:40:19;;;;;;;10.23;8.27;;;19.70;99.90;;;;;;5013886;28;20425;-65
2023/08/12 01:42:47;;;;;;;12.10;8.52;;;19.70;99.90;;;;;;4996214;28;20046;-64
2023/08/12 01:45:16;;;;;;;13.43;8.10;;;19.70;99.90;;;;;;4995634;28;20085;-65
2023/08/12 01:47:43;;;;;;;12.52;8.32;;;19.70;99.90;;;;;;4976247;28;20069;-66
2023/08/12 01:50:11;;;;;;;10.93;8.15;;;19.80;99.90;;;;;;4960878;28;20050;-66
2023/08/12 01:52:38;;;;;;;15.30;8.15;;;19.70;99.90;;;;;;4977016;28;20046;-64
2023/08/12 01:55:05;;;;;;;12.20;8.40;;;19.60;99.90;;;;;;4994136;28;20054;-66
2023/08/12 01:57:33;;;;;;;12.90;8.38;;;19.60;99.90;;;;;;4966473;28;20053;-65
2023/08/12 02:00:01;;;;;;;11.10;8.50;;;19.70;99.90;;;;;;4974008;28;20066;-66
2023/08/12 02:02:28;;;;;;;11.48;8.50;;;19.60;99.90;;;;;;4973125;28;20065;-65
2023/08/12 02:04:54;;;;;;;11.85;8.45;;;19.70;99.90;;;;;;4957357;28;20379;-63
2023/08/12 02:07:21;;;;;;;12.85;8.60;;;19.60;99.90;;;;;;4986260;28;20141;-65
2023/08/12 02:09:47;;;;;;;13.35;9.32;;;19.60;99.90;;;;;;4993957;28;20054;-64
2023/08/12 02:12:14;;;;;;;13.27;8.60;;;19.60;99.90;;;;;;4993584;28;20383;-64
2023/08/12 02:14:40;;;;;;;13.55;8.35;;;19.60;99.90;;;;;;4993743;28;20408;-64
2023/08/12 02:17:07;;;;;;;12.95;8.43;;;19.60;99.90;;;;;;4975394;28;20122;-63
2023/08/12 02:19:36;;;;;;;10.93;8.48;;;19.60;99.90;;;;;;4993682;28;20550;-64
2023/08/12 02:22:03;;;;;;;13.77;9.52;;;19.60;99.90;;;;;;4993688;28;20053;-63
2023/08/12 02:24:30;;;;;;;11.52;9.15;;;19.70;99.90;;;;;;4976644;28;20169;-66
2023/08/12 02:26:58;;;;;;;13.10;8.95;;;19.70;99.90;;;;;;4974794;28;20046;-65
2023/08/12 02:29:25;;;;;;;14.90;9.60;;;19.70;99.90;;;;;;4976394;28;20046;-63
2023/08/12 02:31:55;;;;;;;15.82;8.77;;;19.70;99.90;;;;;;4959931;28;20113;-66
2023/08/12 02:34:21;;;;;;;13.80;9.40;;;19.70;99.90;;;;;;4976412;28;20062;-66
2023/08/12 02:36:49;;;;;;;11.18;8.68;;;19.70;99.90;;;;;;4991958;28;20153;-64
2023/08/12 02:39:16;;;;;;;13.48;9.10;;;19.80;99.90;;;;;;4992362;28;20109;-63
2023/08/12 02:41:42;;;;;;;12.15;8.60;;;19.70;99.90;;;;;;4960204;28;20042;-66
2023/08/12 02:44:09;;;;;;;13.30;8.68;;;19.70;99.90;;;;;;4984989;28;20152;-66
2023/08/12 02:46:35;;;;;;;13.23;9.45;;;19.80;99.90;;;;;;5011809;28;20382;-62
2023/08/12 02:49:01;;;;;;;13.30;8.23;;;19.80;99.90;;;;;;5013019;28;20050;-62
2023/08/12 02:51:28;;;;;;;15.02;8.27;;;19.90;99.90;;;;;;4995344;28;20061;-65
2023/08/12 02:53:54;;;;;;;11.48;7.90;;;19.80;99.90;;;;;;5012826;28;20053;-65
2023/08/12 02:56:23;;;;;;;15.52;8.43;;;19.80;99.90;;;;;;4979554;28;20046;-66
2023/08/12 02:58:52;;;;;;;12.02;7.70;;;19.90;99.90;;;;;;4979011;28;20049;-65
2023/08/12 03:01:20;;;;;;;11.02;7.82;;;19.90;99.90;;;;;;4979333;28;20366;-64
2023/08/12 03:03:46;;;;;;;11.48;7.95;;;19.90;99.90;;;;;;4995316;28;20053;-64
2023/08/12 03:06:13;;;;;;;12.27;8.55;;;20.00;99.90;;;;;;5012254;28;20814;-63
2023/08/12 03:08:39;;;;;;;11.25;8.90;;;19.90;99.90;;;;;;5011671;28;20045;-66
2023/08/12 03:11:06;;;;;;;11.25;7.95;;;20.00;99.90;;;;;;5012415;28;20078;-62
2023/08/12 03:13:47;;;;;;;9.80;7.78;;;19.90;99.90;;;;;;4982547;28;20054;-65
2023/08/12 03:16:14;;;;;;;11.27;8.70;;;19.90;99.90;;;;;;4993968;28;20420;-63
2023/08/12 03:18:41;;;;;;;13.95;8.88;;;19.90;99.90;;;;;;5011398;28;20046;-64
2023/08/12 03:21:10;;;;;;;16.90;8.95;;;20.00;99.90;;;;;;5017530;28;20145;-64
2023/08/12 03:23:38;;;;;;;13.40;8.60;;;20.00;99.90;;;;;;5013896;28;20193;-63
2023/08/12 03:26:05;;;;;;;12.18;8.60;;;20.00;99.90;;;;;;5010837;28;20087;-65
2023/08/12 03:28:31;;;;;;;14.52;8.88;;;20.10;99.90;;;;;;5010754;28;20041;-64
2023/08/12 03:30:58;;;;;;;13.57;8.88;;;20.00;99.90;;;;;;5014835;28;20042;-64
2023/08/12 03:33:25;;;;;;;12.20;8.07;;;19.90;99.90;;;;;;5011085;28;20108;-64
2023/08/12 03:35:54;;;;;;;10.90;8.20;;;20.00;99.90;;;;;;5010403;28;20068;-66
2023/08/12 03:38:22;;;;;;;13.98;8.13;;;20.00;99.90;;;;;;4993729;28;20116;-65
2023/08/12 03:40:51;;;;;;;11.35;8.45;;;20.00;99.90;;;;;;4977708;28;20046;-63
2023/08/12 03:43:19;;;;;;;14.60;9.57;;;20.00;99.90;;;;;;4983517;28;20042;-64
2023/08/12 03:45:48;;;;;;;12.50;8.95;;;20.00;99.90;;;;;;4993902;28;20042;-64
2023/08/12 03:48:16;;;;;;;12.90;8.82;;;20.00;99.90;;;;;;4976566;28;20054;-65
2023/08/12 03:50:45;;;;;;;16.27;9.75;;;20.00;99.90;;;;;;4993896;28;20131;-66
2023/08/12 03:53:11;;;;;;;13.52;9.35;;;20.00;99.90;;;;;;4994196;28;20053;-65
2023/08/12 03:55:38;;;;;;;14.38;9.82;;;20.10;99.90;;;;;;5011267;28;20045;-66
2023/08/12 03:58:05;;;;;;;12.73;9.88;;;20.00;99.90;;;;;;5010270;28;20057;-65
2023/08/12 04:00:32;;;;;;;14.68;9.82;;;20.00;99.90;;;;;;5009751;28;20410;-65
2023/08/12 04:02:58;;;;;;;15.48;9.70;;;20.10;99.90;;;;;;5011329;28;20045;-66
2023/08/12 04:05:34;;;;;;;15.18;10.23;;;20.10;99.90;;;;;;5010818;28;20049;-66
2023/08/12 04:08:01;;;;;;;14.68;10.15;;;20.00;99.90;;;;;;4977030;28;20046;-63
2023/08/12 04:10:28;;;;;;;18.65;10.75;;;20.00;99.90;;;;;;5011254;28;20045;-64
2023/08/12 04:12:54;;;;;;;13.93;11.15;;;19.90;99.90;;;;;;5011399;28;20054;-64
2023/08/12 04:15:22;;;;;;;17.67;11.75;;;20.00;99.90;;;;;;5011081;28;20073;-66
2023/08/12 04:17:48;;;;;;;14.80;10.65;;;20.10;99.90;;;;;;4992535;28;20057;-65
2023/08/12 04:20:16;;;;;;;16.63;11.57;;;20.00;99.90;;;;;;4993317;28;20050;-66
2023/08/12 04:22:43;;;;;;;15.90;12.32;;;20.00;99.90;;;;;;5010908;28;20048;-65
2023/08/12 04:25:10;;;;;;;17.25;11.00;;;20.10;99.90;;;;;;4977466;28;20456;-66
2023/08/12 04:27:37;;;;;;;18.65;12.15;;;20.00;99.90;;;;;;4993109;28;20327;-65
2023/08/12 04:30:04;;;;;;;18.20;11.73;;;19.90;99.90;;;;;;4993654;28;20121;-66
2023/08/12 04:32:31;;;;;;;19.42;12.63;;;19.90;99.90;;;;;;5011495;28;20084;-67
2023/08/12 04:34:57;;;;;;;18.65;12.18;;;19.90;99.90;;;;;;5011065;28;20053;-65
2023/08/12 04:37:24;;;;;;;20.05;13.50;;;20.00;99.90;;;;;;5010210;28;20053;-65
2023/08/12 04:39:50;;;;;;;18.30;12.52;;;20.00;99.90;;;;;;5011492;28;20045;-66
2023/08/12 04:42:17;;;;;;;19.85;13.07;;;20.00;99.90;;;;;;5010995;28;20045;-65
2023/08/12 04:44:43;;;;;;;20.63;12.38;;;20.10;99.90;;;;;;5010527;28;20061;-65
2023/08/12 04:47:09;;;;;;;19.63;13.52;;;20.10;99.90;;;;;;5009697;28;20064;-66
2023/08/12 04:49:36;;;;;;;17.73;12.80;;;20.10;99.90;;;;;;5010435;28;20053;-65
2023/08/12 04:52:02;;;;;;;21.75;13.48;;;20.00;99.90;;;;;;5010466;28;20054;-65
2023/08/12 04:54:28;;;;;;;21.27;13.52;;;19.90;99.90;;;;;;5010883;28;20517;-65
2023/08/12 04:56:56;;;;;;;19.05;13.38;;;20.10;99.90;;;;;;5009474;28;20042;-65
2023/08/12 04:59:22;;;;;;;17.77;13.73;;;20.10;99.90;;;;;;5010340;28;20053;-65
2023/08/12 05:01:48;;;;;;;18.38;13.00;;;20.10;99.90;;;;;;5010166;28;20050;-65
2023/08/12 05:04:17;;;;;;;25.15;13.23;;;20.10;99.90;;;;;;5010562;28;20435;-65
2023/08/12 05:06:43;;;;;;;21.30;13.82;;;20.10;99.90;;;;;;5009438;28;20454;-65
2023/08/12 05:09:10;;;;;;;19.50;13.95;;;20.10;99.90;;;;;;5009961;28;20053;-65
2023/08/12 05:11:36;;;;;;;21.38;14.38;;;20.20;99.90;;;;;;5010182;28;20058;-63
2023/08/12 05:14:02;;;;;;;22.75;13.43;;;20.30;99.90;;;;;;5010214;28;20112;-64
2023/08/12 05:16:29;;;;;;;21.00;14.05;;;20.30;99.90;;;;;;5009431;28;20058;-65
2023/08/12 05:18:55;;;;;;;20.70;14.40;;;20.50;99.90;;;;;;5009952;28;20117;-66
2023/08/12 05:21:22;;;;;;;20.92;14.20;;;20.50;99.90;;;;;;5010187;28;20050;-65
2023/08/12 05:23:48;;;;;;;21.70;13.63;;;20.50;99.90;;;;;;5010704;28;20075;-65
2023/08/12 05:26:15;;;;;;;23.40;14.80;;;20.60;99.90;;;;;;5010088;28;20056;-66
2023/08/12 05:28:41;;;;;;;21.40;14.38;;;20.70;99.90;;;;;;5009751;28;20385;-65
2023/08/12 05:31:08;;;;;;;19.73;14.13;;;20.60;99.90;;;;;;4993327;28;20465;-66
2023/08/12 05:33:35;;;;;;;26.77;15.32;;;20.70;99.90;;;;;;4977073;28;20094;-64
2023/08/12 05:36:11;;;;;;;20.90;14.38;;;20.80;99.90;;;;;;4976626;28;20054;-64
2023/08/12 05:38:44;;;;;;;22.33;14.85;;;20.80;99.90;;;;;;5009931;28;20046;-65
2023/08/12 05:41:10;;;;;;;21.95;15.90;;;20.70;99.90;;;;;;4992961;28;20068;-66
2023/08/12 05:43:37;;;;;;;23.65;16.27;;;20.80;99.90;;;;;;4992622;28;20057;-66
2023/08/12 05:46:03;;;;;;;23.58;16.77;;;20.80;99.90;;;;;;5010121;28;20046;-66
2023/08/12 05:48:30;;;;;;;22.10;16.73;;;20.80;99.90;;;;;;5009495;28;20108;-66
2023/08/12 05:50:57;;;;;;;23.40;17.73;;;20.80;99.90;;;;;;5025346;28;20081;-65
2023/08/12 05:53:23;;;;;;;28.38;18.63;;;20.90;99.90;;;;;;4992846;28;20049;-66
2023/08/12 05:55:49;;;;;;;27.88;18.52;;;20.80;99.90;;;;;;5009980;28;20050;-66
2023/08/12 05:58:15;;;;;;;27.38;17.45;;;20.80;99.90;;;;;;4991749;28;20113;-66
2023/08/12 06:00:45;;;;;;;26.20;18.88;;;20.80;99.90;;;;;;4990291;28;20061;-66
2023/08/12 06:03:12;;;;;;;25.08;19.08;;;20.70;99.90;;;;;;5001987;28;20459;-65
2023/08/12 06:05:39;;;;;;;26.05;18.88;;;20.80;99.90;;;;;;5013386;28;20046;-65
2023/08/12 06:08:06;;;;;;;27.88;18.05;;;20.80;99.90;;;;;;4996613;28;20419;-65
2023/08/12 06:10:33;;;;;;;26.38;18.13;;;20.80;99.90;;;;;;4994094;28;20050;-67
2023/08/12 06:13:00;;;;;;;23.95;18.75;;;20.70;99.90;;;;;;4994132;28;20058;-65
2023/08/12 06:15:26;;;;;;;26.13;19.08;;;20.80;99.90;;;;;;4994060;28;20057;-66
2023/08/12 06:17:52;;;;;;;25.33;19.52;;;20.80;99.90;;;;;;5006808;28;20399;-66
2023/08/12 06:20:18;;;;;;;27.50;20.27;;;20.60;99.90;;;;;;5012773;28;20379;-65
2023/08/12 06:22:45;;;;;;;29.40;20.08;;;20.80;99.90;;;;;;5013466;28;20120;-64
2023/08/12 06:25:11;;;;;;;29.52;20.08;;;20.80;99.90;;;;;;5014790;28;20166;-66
2023/08/12 06:27:37;;;;;;;27.98;21.35;;;20.80;99.90;;;;;;5028893;28;20115;-67
2023/08/12 06:30:05;;;;;;;27.83;19.83;;;20.70;99.90;;;;;;5029428;28;20045;-66
2023/08/12 06:32:31;;;;;;;28.17;22.08;;;20.80;99.90;;;;;;5031551;28;20579;-64
2023/08/12 06:34:57;;;;;;;29.08;20.83;;;20.70;99.90;;;;;;5016851;28;20438;-67
2023/08/12 06:37:23;;;;;;;28.48;20.88;;;20.70;99.90;;;;;;5011308;28;20347;-66
2023/08/12 06:39:50;;;;;;;28.23;19.58;;;20.80;99.90;;;;;;5012887;28;20116;-67
2023/08/12 06:42:17;;;;;;;28.48;20.42;;;20.70;99.90;;;;;;4994924;28;20096;-65
2023/08/12 06:44:45;;;;;;;25.92;20.58;;;20.90;99.90;;;;;;4997956;28;20379;-63
2023/08/12 06:47:11;;;;;;;26.35;21.05;;;20.80;99.90;;;;;;4993259;28;20065;-63
2023/08/12 06:49:38;;;;;;;26.33;20.63;;;20.80;99.90;;;;;;4992970;28;20062;-66
2023/08/12 06:52:05;;;;;;;29.90;21.17;;;20.80;99.90;;;;;;4992697;28;20050;-65
2023/08/12 06:54:32;;;;;;;26.13;19.92;;;20.80;99.90;;;;;;4959741;28;20061;-64
2023/08/12 06:56:59;;;;;;;23.17;18.25;;;20.70;99.90;;;;;;4981237;28;20089;-63
2023/08/12 06:59:26;;;;;;;30.38;21.45;;;20.70;99.90;;;;;;5012547;28;20050;-65
2023/08/12 07:01:52;;;;;;;29.30;19.88;;;20.50;99.90;;;;;;4995285;28;20050;-64
2023/08/12 07:04:18;;;;;;;25.70;20.10;;;20.70;99.90;;;;;;5012280;28;20046;-63
2023/08/12 07:06:45;;;;;;;29.70;21.40;;;20.80;99.90;;;;;;4989436;28;20447;-63
2023/08/12 07:09:11;;;;;;;27.52;20.10;;;20.70;99.90;;;;;;4992609;28;20105;-64
2023/08/12 07:11:38;;;;;;;25.48;18.83;;;20.90;99.90;;;;;;4992673;28;20077;-64
2023/08/12 07:14:04;;;;;;;24.83;19.73;;;20.90;99.90;;;;;;4975205;28;20061;-62
2023/08/12 07:16:31;;;;;;;27.48;19.42;;;20.90;99.90;;;;;;4994305;28;20129;-63
2023/08/12 07:18:57;;;;;;;26.85;19.77;;;20.90;99.90;;;;;;5012362;28;20119;-64
2023/08/12 07:21:23;;;;;;;27.90;20.30;;;20.90;99.90;;;;;;4994728;28;20049;-64
2023/08/12 07:23:50;;;;;;;29.65;20.42;;;20.90;99.90;;;;;;4989873;28;20505;-65
2023/08/12 07:26:16;;;;;;;26.92;19.25;;;20.80;99.90;;;;;;4993687;28;20302;-64
2023/08/12 07:28:42;;;;;;;25.88;19.08;;;20.90;99.90;;;;;;4991750;28;20101;-65
2023/08/12 07:31:09;;;;;;;26.08;19.08;;;20.80;99.90;;;;;;4992595;28;20055;-65
2023/08/12 07:33:35;;;;;;;29.15;19.67;;;20.80;99.90;;;;;;4992707;28;20050;-66
2023/08/12 07:36:02;;;;;;;24.90;19.33;;;20.90;99.90;;;;;;4995904;28;20056;-63
2023/08/12 07:38:29;;;;;;;27.15;20.13;;;20.80;99.90;;;;;;4992730;28;20054;-64
2023/08/12 07:40:55;;;;;;;28.50;19.42;;;20.80;99.90;;;;;;4990943;28;20462;-66
2023/08/12 07:43:21;;;;;;;23.55;17.98;;;20.80;99.90;;;;;;4992064;28;20047;-66
2023/08/12 07:45:55;;;;;;;25.95;19.35;;;20.80;99.90;;;;;;4992244;28;20451;-65
2023/08/12 07:48:22;;;;;;;29.08;18.38;;;20.80;99.90;;;;;;4972819;28;20058;-67
2023/08/12 07:50:56;;;;;;;25.92;18.23;;;20.60;99.90;;;;;;4975371;28;20061;-66
2023/08/12 07:53:22;;;;;;;27.52;18.20;;;20.60;99.90;;;;;;4975204;28;20054;-66
2023/08/12 07:55:49;;;;;;;24.30;18.00;;;20.60;99.90;;;;;;4959089;28;20065;-65
2023/08/12 07:58:15;;;;;;;23.55;17.50;;;20.70;99.90;;;;;;4991095;28;20463;-66
2023/08/12 08:00:42;;;;;;;24.90;18.05;;;20.50;99.90;;;;;;4975227;28;20050;-66
2023/08/12 08:03:08;;;;;;;25.55;17.63;;;20.60;99.90;;;;;;4991830;28;20054;-64
2023/08/12 08:05:35;;;;;;;24.90;18.88;;;20.60;99.90;;;;;;4974665;28;20113;-66
2023/08/12 08:08:01;;;;;;;20.17;17.13;;;20.60;99.90;;;;;;4991882;28;20061;-64
2023/08/12 08:10:27;;;;;;;21.50;16.00;;;20.60;99.90;;;;;;4991676;28;20412;-65
2023/08/12 08:12:54;;;;;;;19.38;15.23;;;20.60;99.90;;;;;;4958026;28;20355;-66
2023/08/12 08:15:20;;;;;;;17.98;13.95;;;20.40;99.90;;;;;;4991342;28;20358;-66
2023/08/12 08:17:46;;;;;;;19.77;13.32;;;20.40;99.90;;;;;;4990756;28;20125;-66
2023/08/12 08:20:13;;;;;;;15.13;12.55;;;20.50;99.90;;;;;;4991027;28;20141;-67
2023/08/12 08:22:55;;;;;;;14.88;11.20;;;20.40;99.90;;;;;;4974602;28;20463;-66
2023/08/12 08:25:21;;;;;;;12.43;9.80;;;20.30;99.90;;;;;;4972447;28;20054;-65
2023/08/12 08:27:48;;;;;;;10.32;8.65;;;20.20;99.90;;;;;;4990471;28;20046;-66
2023/08/12 08:30:16;;;;;;;9.93;7.72;;;20.30;99.90;;;;;;4991299;28;20050;-66
2023/08/12 08:32:42;;;;;;;10.35;7.22;;;20.20;99.90;;;;;;4991064;28;20380;-67
2023/08/12 08:35:09;;;;;;;9.45;6.28;;;20.20;99.90;;;;;;4991168;28;20057;-66
2023/08/12 08:37:35;;;;;;;8.55;6.25;;;20.20;99.90;;;;;;4990600;28;20117;-67
2023/08/12 08:40:03;;;;;;;11.25;6.78;;;20.20;99.90;;;;;;4991022;28;20057;-66
2023/08/12 08:42:30;;;;;;;8.68;6.43;;;20.20;99.90;;;;;;4991234;28;20043;-66
2023/08/12 08:45:00;;;;;;;9.13;6.57;;;20.20;99.90;;;;;;4990657;28;20340;-65
2023/08/12 08:47:27;;;;;;;7.07;6.03;;;20.30;99.90;;;;;;4989747;28;20058;-65
2023/08/12 08:49:56;;;;;;;9.60;6.55;;;20.30;99.90;;;;;;4990131;28;20042;-65
2023/08/12 08:52:31;;;;;;;10.50;6.88;;;20.20;99.90;;;;;;4987293;28;20470;-65
2023/08/12 08:55:00;;;;;;;8.30;5.85;;;20.30;99.90;;;;;;4990296;28;20050;-65
2023/08/12 08:57:28;;;;;;;9.05;6.50;;;20.30;99.90;;;;;;4972302;28;20467;-64
2023/08/12 08:59:54;;;;;;;7.72;6.22;;;20.40;99.90;;;;;;4990503;28;20038;-65
2023/08/12 09:02:21;;;;;;;7.05;5.78;;;20.40;99.90;;;;;;4993779;28;20105;-64
2023/08/12 09:04:48;;;;;;;8.27;6.25;;;20.40;99.90;;;;;;4995549;28;20375;-64
2023/08/12 09:07:18;;;;;;;8.25;5.32;;;20.40;99.90;;;;;;4989792;28;20046;-64
2023/08/12 09:09:48;;;;;;;7.32;5.35;;;20.60;99.90;;;;;;4990870;28;20046;-64
2023/08/12 09:12:16;;;;;;;5.68;4.57;;;20.50;99.90;;;;;;4990710;28;20081;-64
2023/08/12 09:14:43;;;;;;;6.47;4.22;;;20.40;99.90;;;;;;4990906;28;20168;-63
2023/08/12 09:17:10;;;;;;;6.30;4.38;;;20.30;99.90;;;;;;4971939;28;20132;-64
2023/08/12 09:19:37;;;;;;;6.55;4.10;;;20.30;99.90;;;;;;4990480;28;20383;-66
2023/08/12 09:22:05;;;;;;;6.75;4.07;;;20.50;99.90;;;;;;4956528;28;20050;-64
2023/08/12 09:24:31;;;;;;;8.68;3.88;;;20.50;99.90;;;;;;4956796;28;20373;-64
2023/08/12 09:26:57;;;;;;;6.28;3.60;;;20.40;99.90;;;;;;4989738;28;20455;-65
2023/08/12 09:29:34;;;;;;;5.43;3.75;;;20.30;99.90;;;;;;4990123;28;20054;-65
2023/08/12 09:32:17;;;;;;;5.88;3.72;;;20.30;99.90;;;;;;4957464;28;20125;-65
2023/08/12 09:34:55;;;;;;;4.82;3.78;;;20.40;99.90;;;;;;4974090;28;20129;-65
2023/08/12 09:37:24;;;;;;;3.95;3.13;;;20.20;99.90;;;;;;4975128;28;20584;-64
2023/08/12 09:39:51;;;;;;;3.95;3.30;;;20.20;99.90;;;;;;4977134;28;20459;-65
2023/08/12 09:42:19;;;;;;;4.57;3.55;;;20.30;99.90;;;;;;4977234;28;20046;-64
2023/08/12 09:44:46;;;;;;;6.15;3.50;;;20.30;99.90;;;;;;5008190;28;20373;-64
2023/08/12 09:47:12;;;;;;;3.63;3.22;;;20.40;99.90;;;;;;4995992;28;20089;-64
2023/08/12 09:49:39;;;;;;;5.03;2.97;;;20.40;99.90;;;;;;5013945;28;20076;-65
2023/08/12 09:52:07;;;;;;;4.15;3.15;;;20.30;99.90;;;;;;4980169;28;20399;-64
2023/08/12 09:54:35;;;;;;;4.80;3.17;;;20.40;99.90;;;;;;4980535;28;20056;-64
2023/08/12 09:57:03;;;;;;;4.25;3.13;;;20.40;99.90;;;;;;4996276;28;20366;-64
2023/08/12 09:59:35;;;;;;;3.83;2.67;;;20.60;99.90;;;;;;5014112;28;20081;-64
2023/08/12 10:02:07;;;;;;;3.38;2.17;;;20.60;99.90;;;;;;4996402;28;20156;-64
2023/08/12 10:04:44;;;;;;;3.47;2.40;;;20.70;99.90;;;;;;4996053;28;20058;-64
2023/08/12 10:07:14;;;;;;;3.15;2.22;;;20.60;99.90;;;;;;5013171;28;20045;-65
2023/08/12 10:09:41;;;;;;;3.63;2.63;;;20.70;99.90;;;;;;4995135;28;20042;-65
2023/08/12 10:12:08;;;;;;;3.55;2.22;;;20.70;99.90;;;;;;5013184;28;20149;-64
2023/08/12 10:14:36;;;;;;;3.25;2.67;;;20.80;99.90;;;;;;4978851;28;20114;-64
2023/08/12 10:17:02;;;;;;;3.22;2.55;;;20.80;99.90;;;;;;5012473;28;20057;-64
2023/08/12 10:19:30;;;;;;;4.07;2.50;;;20.70;99.90;;;;;;5012900;28;20042;-64
2023/08/12 10:22:02;;;;;;;4.25;2.70;;;20.70;99.90;;;;;;5013012;28;20037;-65
2023/08/12 10:24:29;;;;;;;;;;;20.80;99.90;;;;;;5013319;28;20096;-64
2023/08/12 10:26:56;;;;;;;2.63;2.30;;;20.80;99.90;;;;;;5011712;28;20368;-65
2023/08/12 10:29:25;;;;;;;3.92;2.42;;;20.90;99.90;;;;;;5012962;28;20049;-65
2023/08/12 10:31:51;;;;;;;4.75;3.03;;;20.80;99.90;;;;;;5012618;28;20054;-64
2023/08/12 10:34:22;;;;;;;3.05;2.70;;;20.90;99.90;;;;;;5012232;28;20108;-63
2023/08/12 10:36:55;;;;;;;3.13;2.40;;;20.80;99.90;;;;;;5009215;28;20485;-65
2023/08/12 10:39:30;;;;;;;3.10;2.00;;;21.00;99.90;;;;;;4995547;28;20057;-64
2023/08/12 10:41:57;;;;;;;3.42;1.80;;;21.10;99.90;;;;;;5012566;28;20057;-64
2023/08/12 10:44:39;;;;;;;3.30;1.80;;;21.30;99.90;;;;;;5012025;28;20057;-64
2023/08/12 10:47:10;;;;;;;3.67;1.67;;;21.40;99.90;;;;;;5010337;28;20046;-64
2023/08/12 10:49:46;;;;;;;;;;;21.30;99.90;;;;;;4993682;28;20061;-64
2023/08/12 10:52:30;;;;;;;;;;;21.20;99.90;;;;;;5012250;28;20032;-64
2023/08/12 10:55:36;;;;;;;1.92;1.27;;;21.30;99.90;;;;;;5010709;28;19984;-64
2023/08/12 10:58:08;;;;;;;2.38;1.50;;;21.30;99.90;;;;;;4916956;29;20044;-65
2023/08/12 11:00:35;;;;;;;2.47;1.65;;;21.10;99.90;;;;;;4997457;28;20049;-64
2023/08/12 11:03:06;;;;;;;2.03;1.50;;;21.00;99.90;;;;;;5011922;28;20046;-64
2023/08/12 11:05:38;;;;;;;2.50;1.70;;;20.80;99.90;;;;;;5012002;28;20042;-64
2023/08/12 11:08:05;;;;;;;2.70;1.98;;;20.90;99.90;;;;;;4998226;28;20054;-66
2023/08/12 11:10:35;;;;;;;4.43;2.10;;;20.70;99.90;;;;;;4992729;28;20054;-65
2023/08/12 11:13:03;;;;;;;3.17;2.10;;;20.80;99.90;;;;;;4992491;28;20054;-64
2023/08/12 11:15:47;;;;;;;3.35;1.83;;;20.70;99.90;;;;;;5007838;28;20073;-64
2023/08/12 11:18:20;;;;;;;3.75;2.13;;;20.50;99.90;;;;;;5007141;28;20046;-65
2023/08/12 11:20:48;;;;;;;5.75;2.60;;;20.30;99.90;;;;;;5011882;28;20054;-64
2023/08/12 11:23:17;;;;;;;4.85;2.83;;;20.20;99.90;;;;;;5012297;28;20109;-64
2023/08/12 11:25:49;;;;;;;4.13;2.63;;;20.00;99.90;;;;;;5011549;28;20046;-64
2023/08/12 11:28:19;;;;;;;4.97;2.60;;;20.00;99.90;;;;;;4995303;28;20085;-64
2023/08/12 11:30:45;;;;;;;6.05;3.03;;;19.90;99.90;;;;;;5012294;28;20113;-65
2023/08/12 11:33:12;;;;;;;4.88;2.85;;;20.00;99.90;;;;;;4994325;28;20552;-64
2023/08/12 11:35:39;;;;;;;6.40;3.05;;;19.90;99.90;;;;;;5011939;28;20053;-65
2023/08/12 11:38:07;;;;;;;5.00;3.30;;;20.00;99.90;;;;;;4977743;28;20443;-64
2023/08/12 11:40:33;;;;;;;6.93;3.22;;;20.40;99.90;;;;;;4978706;28;20049;-65
2023/08/12 11:43:01;;;;;;;4.60;2.58;;;20.40;99.90;;;;;;5012113;28;20045;-64
2023/08/12 11:45:28;;;;;;;4.82;2.95;;;20.70;99.90;;;;;;5011413;28;20479;-65
2023/08/12 11:47:54;;;;;;;5.35;2.83;;;20.90;99.90;;;;;;5011042;28;20061;-64
2023/08/12 11:50:23;;;;;;;6.05;2.53;;;20.90;99.90;;;;;;5011503;28;20049;-65
2023/08/12 11:52:51;;;;;;;6.53;2.78;;;21.10;99.90;;;;;;5011576;28;20056;-64
2023/08/12 11:55:17;;;;;;;5.40;2.50;;;21.00;99.90;;;;;;5011644;28;20128;-64
2023/08/12 11:57:45;;;;;;;5.07;2.55;;;20.80;99.90;;;;;;4977110;28;20053;-65
2023/08/12 12:00:13;;;;;;;6.22;2.80;;;20.80;99.90;;;;;;5011305;28;20049;-65
2023/08/12 12:03:06;;;;;;;5.32;2.55;;;20.80;99.90;;;;;;5011443;28;20105;-63
2023/08/12 12:05:35;;;;;;;4.97;2.33;;;20.70;99.90;;;;;;4991595;28;20054;-64
2023/08/12 12:08:04;;;;;;;7.65;2.33;;;20.80;99.90;;;;;;4994025;28;20194;-65
2023/08/12 12:10:33;;;;;;;6.90;2.40;;;20.90;99.90;;;;;;5011636;28;20041;-63
2023/08/12 12:13:01;;;;;;;9.00;2.83;;;21.00;99.90;;;;;;5011453;28;20061;-64
2023/08/12 12:15:28;;;;;;;5.90;2.17;;;21.30;99.90;;;;;;4994411;28;20050;-65
2023/08/12 12:17:54;;;;;;;6.15;2.60;;;21.30;99.90;;;;;;4993135;28;20050;-64
2023/08/12 12:20:21;;;;;;;5.78;2.53;;;21.30;99.90;;;;;;5010807;28;20497;-64
2023/08/12 12:22:48;;;;;;;4.72;2.38;;;21.40;99.90;;;;;;5011424;28;20073;-65
2023/08/12 12:25:18;;;;;;;5.03;2.20;;;21.40;99.90;;;;;;5010987;28;20045;-65
2023/08/12 12:27:46;;;;;;;6.25;2.40;;;21.60;99.90;;;;;;4993145;28;20398;-65
2023/08/12 12:30:14;;;;;;;5.95;2.50;;;21.50;99.90;;;;;;5010719;28;20355;-65
2023/08/12 12:32:41;;;;;;;6.43;2.17;;;21.70;99.90;;;;;;5010958;28;20095;-64
2023/08/12 12:35:08;;;;;;;5.85;2.05;;;21.60;99.90;;;;;;5010975;28;20100;-64
2023/08/12 12:37:36;;;;;;;7.50;2.75;;;21.70;99.90;;;;;;5010631;28;20045;-65
2023/08/12 12:40:03;;;;;;;6.53;2.50;;;21.80;99.90;;;;;;5010977;28;20108;-63
2023/08/12 12:42:30;;;;;;;7.40;2.38;;;21.70;99.90;;;;;;4977344;28;20065;-65